»·PEaware :: UAL588 KSFO-KSBA

UAL588 :: KSFO-KSBA

FLIGHT INFORMATION

Flight Status: Arrived
Operator:
United Airlines
More flights by this operator :: More flights under this callsign
Pilot: Utku A. (15598)
Aircraft: BOEING 737-800
(B738)
More flights by this aircraft type
Origin: KSFO San Francisco Intl
United States
Destination: KSBA Santa Barbara Mun
United States
More flights between these airports :: More routes between these airports
Route: +OFFSH1 GVO HABUT
File this flight plan on PilotEdge
Remarks:
Altitude:
(Current/Filed)
35,000ft
Speed:
(Current/Filed)
455kts
Departed: 05-Aug-18 05:04 PM
Arrived: 05-Aug-18 05:57 PM
Distance/Time
Traveled:
228nm/0:52
Distance/Time
To Go:
Arrived

Flight Plot

Page will automatically refresh every two minutes.


Map Options




Map Legend


Flown Route
Filed Route
Departure Airport
Arrival Airport
Navaid (VOR, NDB)
Fix

Horizontal Profiles

Position Reports

Time Latitude Longitude Heading Altitude Ground
Speed
05-Aug-18 16:39 37.619183 -122.383509 291 31ft 0kts
05-Aug-18 16:40 37.619183 -122.383509 291 31ft 0kts
05-Aug-18 16:41 37.619183 -122.383509 291 31ft 0kts
05-Aug-18 16:42 37.619183 -122.383509 291 31ft 0kts
05-Aug-18 16:43 37.619183 -122.383509 291 31ft 0kts
05-Aug-18 16:44 37.619183 -122.383509 291 31ft 0kts
05-Aug-18 16:45 37.619183 -122.383509 291 31ft 0kts
05-Aug-18 16:46 37.619183 -122.383509 291 31ft 0kts
05-Aug-18 16:47 37.619183 -122.383509 291 31ft 0kts
05-Aug-18 16:48 37.619183 -122.383509 291 31ft 0kts
05-Aug-18 16:49 37.619183 -122.383509 291 31ft 0kts
05-Aug-18 16:50 37.619183 -122.383509 291 31ft 0kts
05-Aug-18 16:51 37.619183 -122.383509 291 31ft 0kts
05-Aug-18 16:52 37.619183 -122.383509 291 31ft 0kts
05-Aug-18 16:53 37.619183 -122.383509 291 31ft 0kts
05-Aug-18 16:54 37.619183 -122.383509 291 31ft 0kts
05-Aug-18 16:55 37.619155 -122.383419 298 31ft 2kts
05-Aug-18 16:56 37.618645 -122.383136 13 31ft 2kts
05-Aug-18 16:57 37.618493 -122.383215 32 31ft 0kts
05-Aug-18 16:58 37.618493 -122.383215 32 31ft 0kts
05-Aug-18 16:59 37.618590 -122.383148 27 31ft 3kts
05-Aug-18 17:00 37.619286 -122.381115 118 31ft 13kts
05-Aug-18 17:01 37.616149 -122.379951 207 30ft 13kts
05-Aug-18 17:02 37.612336 -122.382481 208 31ft 17kts
05-Aug-18 17:03 37.608733 -122.384483 124 31ft 10kts
05-Aug-18 17:04 37.608535 -122.384028 117 31ft 0kts
05-Aug-18 17:05 37.610428 -122.381258 27 30ft 56kts
05-Aug-18 17:06 37.645529 -122.358014 17 1520ft 185kts
05-Aug-18 17:07 37.703927 -122.363357 335 2808ft 248kts
05-Aug-18 17:08 37.726127 -122.438500 246 6067ft 264kts
05-Aug-18 17:09 37.666549 -122.493878 210 9193ft 281kts
05-Aug-18 17:10 37.605214 -122.557360 244 11548ft 308kts
05-Aug-18 17:11 37.567174 -122.655661 244 14480ft 318kts
05-Aug-18 17:12 37.497952 -122.714665 176 17175ft 347kts
05-Aug-18 17:13 37.401255 -122.688713 171 19623ft 364kts
05-Aug-18 17:14 37.300921 -122.661682 172 21874ft 377kts
05-Aug-18 17:15 37.196787 -122.634062 172 23910ft 390kts
05-Aug-18 17:16 37.089162 -122.605724 172 25765ft 403kts
05-Aug-18 17:17 36.978042 -122.576625 172 27457ft 415kts
05-Aug-18 17:18 36.864575 -122.547008 172 29030ft 425kts
05-Aug-18 17:19 36.749003 -122.516914 172 30831ft 425kts
05-Aug-18 17:20 36.633776 -122.487004 173 32560ft 423kts
05-Aug-18 17:21 36.519741 -122.457511 173 34098ft 420kts
05-Aug-18 17:22 36.410205 -122.408103 146 35034ft 444kts
05-Aug-18 17:23 36.325404 -122.292801 134 35020ft 476kts
05-Aug-18 17:24 36.238676 -122.165614 134 35017ft 489kts
05-Aug-18 17:25 36.151251 -122.038342 134 35020ft 487kts
05-Aug-18 17:26 36.063520 -121.911287 134 35007ft 488kts
05-Aug-18 17:27 35.974821 -121.783389 134 33147ft 485kts
05-Aug-18 17:28 35.887770 -121.658484 133 31196ft 493kts
05-Aug-18 17:29 35.797949 -121.530069 133 29230ft 495kts
05-Aug-18 17:30 35.711182 -121.406358 133 27237ft 466kts
05-Aug-18 17:31 35.631820 -121.293600 133 25301ft 440kts
05-Aug-18 17:32 35.553334 -121.182595 133 23935ft 418kts
05-Aug-18 17:33 35.477580 -121.075708 134 23938ft 416kts
05-Aug-18 17:34 35.401834 -120.969201 134 23303ft 414kts
05-Aug-18 17:35 35.328505 -120.866363 134 21800ft 395kts
05-Aug-18 17:36 35.258759 -120.768911 134 20344ft 386kts
05-Aug-18 17:37 35.177611 -120.688298 145 18862ft 372kts
05-Aug-18 17:38 35.096273 -120.612709 144 17369ft 363kts
05-Aug-18 17:39 35.017351 -120.539387 144 15881ft 353kts
05-Aug-18 17:40 34.940213 -120.467828 143 14393ft 346kts
05-Aug-18 17:41 34.865449 -120.397292 142 12916ft 341kts
05-Aug-18 17:42 34.799887 -120.334208 143 11743ft 323kts
05-Aug-18 17:43 34.737430 -120.274025 143 10806ft 308kts
05-Aug-18 17:44 34.670545 -120.209489 143 9797ft 304kts
05-Aug-18 17:45 34.604614 -120.147632 144 9042ft 296kts
05-Aug-18 17:46 34.537016 -120.088950 146 9036ft 299kts
05-Aug-18 17:47 34.470567 -120.032264 146 8054ft 285kts
05-Aug-18 17:48 34.408347 -119.978431 146 7339ft 263kts
05-Aug-18 17:49 34.351962 -119.929430 146 6181ft 241kts
05-Aug-18 17:50 34.299604 -119.883323 134 4358ft 227kts
05-Aug-18 17:51 34.292362 -119.812624 88 3984ft 215kts
05-Aug-18 17:52 34.298541 -119.740450 61 3605ft 218kts
05-Aug-18 17:53 34.347791 -119.714128 358 2977ft 182kts
05-Aug-18 17:54 34.395951 -119.717069 350 2241ft 172kts
05-Aug-18 17:55 34.430779 -119.747386 272 1905ft 155kts
05-Aug-18 17:56 34.428666 -119.798156 265 805ft 150kts
05-Aug-18 17:57 34.427662 -119.845286 267 20ft 87kts
05-Aug-18 17:58 34.426430 -119.850819 90 20ft 11kts
05-Aug-18 17:59 34.426559 -119.844609 88 20ft 20kts
05-Aug-18 18:00 34.426679 -119.838915 88 20ft 8kts
05-Aug-18 18:01 34.424514 -119.837669 159 20ft 5kts
05-Aug-18 18:02 34.424259 -119.837039 105 20ft 0kts
05-Aug-18 18:03 34.424259 -119.837039 105 20ft 0kts
05-Aug-18 18:04 34.424259 -119.837039 105 20ft 0kts
05-Aug-18 18:05 34.424259 -119.837039 105 20ft 0kts
05-Aug-18 18:06 34.424259 -119.837039 105 20ft 0kts
05-Aug-18 18:07 34.424259 -119.837039 105 20ft 0kts
05-Aug-18 18:08 34.424259 -119.837039 105 20ft 0kts
05-Aug-18 18:09 34.424259 -119.837039 105 20ft 0kts
05-Aug-18 18:10 34.424259 -119.837039 105 20ft 0kts
05-Aug-18 18:11 34.424259 -119.837039 105 20ft 0kts
05-Aug-18 18:12 34.424259 -119.837039 105 20ft 0kts

Navigation Log

Ident Type
1. KSFO Airport
2. MCKEY Fix
3. MQO Navaid
4. GVO Navaid
5. HABUT Fix
6. KSBA Airport